X  Blizu METAR Podaci o vazduhoplovstvu        LGTS Thessaloniki Macedonia International
Temperatura
13°C Temperatura
11°C Tačka Rose
88% Vlaga



Vetar
0 KM/S
0 MPS
0 M/S
0 Čvorovi



Tiho
S
Trenutna situacija

Mostly Clear Uglavnom jasno
Vazdušni pritisak 1018 (hPa) - 30.06 (inHg)
Vidljivost 6 (Milje) - 10 (km)
Aerodrom
Aerodromski kod. LGTS

Lokacija: Thessaloniki Macedonia International
Udaljenost: 85 (km)

Metar:
METAR LGTS 250420Z 00000KT 9999 FEW025 13/11 Q1018 NOSIG

Vreme: 25-02-2024 06:20 EET